sensor_id;sensor_type;location;lat;lon;timestamp;temperature;humidity
8114;DHT22;4099;52.684;9.918;2023-04-29T00:02:28;11.80;99.90
8114;DHT22;4099;52.684;9.918;2023-04-29T00:07:30;11.70;99.90
8114;DHT22;4099;52.684;9.918;2023-04-29T00:12:34;11.70;99.90
8114;DHT22;4099;52.684;9.918;2023-04-29T00:17:36;11.60;99.90
8114;DHT22;4099;52.684;9.918;2023-04-29T00:22:38;11.50;99.90
8114;DHT22;4099;52.684;9.918;2023-04-29T00:27:41;11.40;99.90
8114;DHT22;4099;52.684;9.918;2023-04-29T00:32:43;11.40;99.90
8114;DHT22;4099;52.684;9.918;2023-04-29T00:37:46;11.40;99.90
8114;DHT22;4099;52.684;9.918;2023-04-29T00:42:49;11.30;99.90
8114;DHT22;4099;52.684;9.918;2023-04-29T00:47:51;11.20;99.90
8114;DHT22;4099;52.684;9.918;2023-04-29T00:52:52;11.10;99.90
8114;DHT22;4099;52.684;9.918;2023-04-29T00:57:56;11.10;99.90
8114;DHT22;4099;52.684;9.918;2023-04-29T01:02:58;11.10;99.90
8114;DHT22;4099;52.684;9.918;2023-04-29T01:08:12;11.00;99.90
8114;DHT22;4099;52.684;9.918;2023-04-29T01:13:26;11.00;99.90
8114;DHT22;4099;52.684;9.918;2023-04-29T01:18:32;11.00;99.90
8114;DHT22;4099;52.684;9.918;2023-04-29T01:23:38;10.90;99.90
8114;DHT22;4099;52.684;9.918;2023-04-29T01:28:48;11.00;99.90
8114;DHT22;4099;52.684;9.918;2023-04-29T01:34:02;10.90;99.90
8114;DHT22;4099;52.684;9.918;2023-04-29T01:39:13;10.80;99.90
8114;DHT22;4099;52.684;9.918;2023-04-29T01:44:23;10.80;99.90
8114;DHT22;4099;52.684;9.918;2023-04-29T01:49:28;10.70;99.90
8114;DHT22;4099;52.684;9.918;2023-04-29T01:54:32;10.60;99.90
8114;DHT22;4099;52.684;9.918;2023-04-29T01:59:36;10.60;99.90
8114;DHT22;4099;52.684;9.918;2023-04-29T02:04:56;10.40;99.90
8114;DHT22;4099;52.684;9.918;2023-04-29T02:10:00;10.30;99.90
8114;DHT22;4099;52.684;9.918;2023-04-29T02:15:08;10.20;99.90
8114;DHT22;4099;52.684;9.918;2023-04-29T02:20:10;10.10;99.90
8114;DHT22;4099;52.684;9.918;2023-04-29T02:25:14;10.10;99.90
8114;DHT22;4099;52.684;9.918;2023-04-29T02:30:16;10.00;99.90
8114;DHT22;4099;52.684;9.918;2023-04-29T02:35:18;10.00;99.90
8114;DHT22;4099;52.684;9.918;2023-04-29T02:40:21;10.00;99.90
8114;DHT22;4099;52.684;9.918;2023-04-29T02:45:25;10.00;99.90
8114;DHT22;4099;52.684;9.918;2023-04-29T02:50:28;10.00;99.90
8114;DHT22;4099;52.684;9.918;2023-04-29T02:55:31;9.90;99.90
8114;DHT22;4099;52.684;9.918;2023-04-29T03:00:39;9.90;99.90
8114;DHT22;4099;52.684;9.918;2023-04-29T03:05:41;9.80;99.90
8114;DHT22;4099;52.684;9.918;2023-04-29T03:10:45;9.80;99.90
8114;DHT22;4099;52.684;9.918;2023-04-29T03:15:47;9.90;99.90
8114;DHT22;4099;52.684;9.918;2023-04-29T03:20:49;9.80;99.90
8114;DHT22;4099;52.684;9.918;2023-04-29T03:25:53;9.80;99.90
8114;DHT22;4099;52.684;9.918;2023-04-29T03:30:57;9.70;99.90
8114;DHT22;4099;52.684;9.918;2023-04-29T03:36:00;9.70;99.90
8114;DHT22;4099;52.684;9.918;2023-04-29T03:41:14;9.70;99.90
8114;DHT22;4099;52.684;9.918;2023-04-29T03:46:16;9.70;99.90
8114;DHT22;4099;52.684;9.918;2023-04-29T03:51:19;9.70;99.90
8114;DHT22;4099;52.684;9.918;2023-04-29T03:56:22;9.50;99.90
8114;DHT22;4099;52.684;9.918;2023-04-29T04:01:25;9.50;99.90
8114;DHT22;4099;52.684;9.918;2023-04-29T04:06:27;9.50;99.90
8114;DHT22;4099;52.684;9.918;2023-04-29T04:11:30;9.40;99.90
8114;DHT22;4099;52.684;9.918;2023-04-29T04:16:36;9.40;99.90
8114;DHT22;4099;52.684;9.918;2023-04-29T04:21:38;9.30;99.90
8114;DHT22;4099;52.684;9.918;2023-04-29T04:26:44;9.20;99.90
8114;DHT22;4099;52.684;9.918;2023-04-29T04:31:52;9.20;99.90
8114;DHT22;4099;52.684;9.918;2023-04-29T04:36:56;9.10;99.90
8114;DHT22;4099;52.684;9.918;2023-04-29T04:42:00;9.10;99.90
8114;DHT22;4099;52.684;9.918;2023-04-29T04:47:05;9.00;99.90
8114;DHT22;4099;52.684;9.918;2023-04-29T04:52:19;9.00;99.90
8114;DHT22;4099;52.684;9.918;2023-04-29T04:57:25;9.00;99.90
8114;DHT22;4099;52.684;9.918;2023-04-29T05:02:29;9.00;99.90
8114;DHT22;4099;52.684;9.918;2023-04-29T05:07:31;9.10;99.90
8114;DHT22;4099;52.684;9.918;2023-04-29T05:12:39;9.20;99.90
8114;DHT22;4099;52.684;9.918;2023-04-29T05:17:41;9.20;99.90
8114;DHT22;4099;52.684;9.918;2023-04-29T05:22:43;9.30;99.90
8114;DHT22;4099;52.684;9.918;2023-04-29T05:27:48;9.40;99.90
8114;DHT22;4099;52.684;9.918;2023-04-29T05:32:53;9.40;99.90
8114;DHT22;4099;52.684;9.918;2023-04-29T05:37:56;9.40;99.90
8114;DHT22;4099;52.684;9.918;2023-04-29T05:43:07;9.50;99.90
8114;DHT22;4099;52.684;9.918;2023-04-29T05:48:11;9.60;99.90
8114;DHT22;4099;52.684;9.918;2023-04-29T05:53:12;9.60;99.90
8114;DHT22;4099;52.684;9.918;2023-04-29T05:58:17;9.70;99.90
8114;DHT22;4099;52.684;9.918;2023-04-29T06:03:19;9.80;99.90
8114;DHT22;4099;52.684;9.918;2023-04-29T06:08:26;9.90;99.90
8114;DHT22;4099;52.684;9.918;2023-04-29T06:13:36;10.00;99.90
8114;DHT22;4099;52.684;9.918;2023-04-29T06:18:39;10.00;99.90
8114;DHT22;4099;52.684;9.918;2023-04-29T06:23:41;10.00;99.90
8114;DHT22;4099;52.684;9.918;2023-04-29T06:28:51;10.00;99.90
8114;DHT22;4099;52.684;9.918;2023-04-29T06:33:54;10.10;99.90
8114;DHT22;4099;52.684;9.918;2023-04-29T06:38:56;10.10;99.90
8114;DHT22;4099;52.684;9.918;2023-04-29T06:44:26;10.20;99.90
8114;DHT22;4099;52.684;9.918;2023-04-29T06:49:53;10.20;99.90
8114;DHT22;4099;52.684;9.918;2023-04-29T06:54:55;10.20;99.90
8114;DHT22;4099;52.684;9.918;2023-04-29T06:59:58;10.00;99.90
8114;DHT22;4099;52.684;9.918;2023-04-29T07:05:00;10.10;99.90
8114;DHT22;4099;52.684;9.918;2023-04-29T07:10:02;10.40;99.90
8114;DHT22;4099;52.684;9.918;2023-04-29T07:15:07;10.80;99.90
8114;DHT22;4099;52.684;9.918;2023-04-29T07:20:09;10.70;99.90
8114;DHT22;4099;52.684;9.918;2023-04-29T07:25:12;10.50;99.90
8114;DHT22;4099;52.684;9.918;2023-04-29T07:30:15;10.50;99.90
8114;DHT22;4099;52.684;9.918;2023-04-29T07:35:17;10.90;99.90
8114;DHT22;4099;52.684;9.918;2023-04-29T07:40:19;11.50;99.90
8114;DHT22;4099;52.684;9.918;2023-04-29T07:45:23;11.90;99.90
8114;DHT22;4099;52.684;9.918;2023-04-29T07:50:24;12.20;99.90
8114;DHT22;4099;52.684;9.918;2023-04-29T07:55:27;12.10;99.90
8114;DHT22;4099;52.684;9.918;2023-04-29T08:00:31;12.10;99.90
8114;DHT22;4099;52.684;9.918;2023-04-29T08:05:33;12.30;99.90
8114;DHT22;4099;52.684;9.918;2023-04-29T08:10:37;12.80;99.90
8114;DHT22;4099;52.684;9.918;2023-04-29T08:15:44;13.50;99.90
8114;DHT22;4099;52.684;9.918;2023-04-29T08:20:49;14.10;99.90
8114;DHT22;4099;52.684;9.918;2023-04-29T08:25:51;13.90;99.90
8114;DHT22;4099;52.684;9.918;2023-04-29T08:30:56;13.50;99.90
8114;DHT22;4099;52.684;9.918;2023-04-29T08:35:58;13.50;99.90
8114;DHT22;4099;52.684;9.918;2023-04-29T08:41:02;13.90;99.90
8114;DHT22;4099;52.684;9.918;2023-04-29T08:46:06;14.20;99.90
8114;DHT22;4099;52.684;9.918;2023-04-29T08:51:10;14.30;99.90
8114;DHT22;4099;52.684;9.918;2023-04-29T08:56:15;14.40;99.90
8114;DHT22;4099;52.684;9.918;2023-04-29T09:01:21;14.20;99.90
8114;DHT22;4099;52.684;9.918;2023-04-29T09:06:24;14.00;99.90
8114;DHT22;4099;52.684;9.918;2023-04-29T09:11:26;14.60;99.90
8114;DHT22;4099;52.684;9.918;2023-04-29T09:16:30;14.70;99.90
8114;DHT22;4099;52.684;9.918;2023-04-29T09:21:31;14.10;99.90
8114;DHT22;4099;52.684;9.918;2023-04-29T09:26:40;14.40;99.90
8114;DHT22;4099;52.684;9.918;2023-04-29T09:31:44;14.90;99.90
8114;DHT22;4099;52.684;9.918;2023-04-29T09:36:48;14.40;99.90
8114;DHT22;4099;52.684;9.918;2023-04-29T09:41:58;14.70;99.90
8114;DHT22;4099;52.684;9.918;2023-04-29T09:47:04;14.50;99.90
8114;DHT22;4099;52.684;9.918;2023-04-29T09:52:08;13.80;99.90
8114;DHT22;4099;52.684;9.918;2023-04-29T09:57:12;14.70;99.90
8114;DHT22;4099;52.684;9.918;2023-04-29T10:02:17;15.50;99.90
8114;DHT22;4099;52.684;9.918;2023-04-29T10:07:19;15.90;99.90
8114;DHT22;4099;52.684;9.918;2023-04-29T10:12:21;15.40;99.90
8114;DHT22;4099;52.684;9.918;2023-04-29T10:17:34;15.90;99.90
8114;DHT22;4099;52.684;9.918;2023-04-29T10:22:44;16.50;97.20
8114;DHT22;4099;52.684;9.918;2023-04-29T10:27:48;16.80;99.70
8114;DHT22;4099;52.684;9.918;2023-04-29T10:32:52;16.10;98.30
8114;DHT22;4099;52.684;9.918;2023-04-29T10:37:58;15.60;99.50
8114;DHT22;4099;52.684;9.918;2023-04-29T10:43:02;15.60;99.00
8114;DHT22;4099;52.684;9.918;2023-04-29T10:48:14;15.70;98.80
8114;DHT22;4099;52.684;9.918;2023-04-29T10:53:19;15.90;99.60
8114;DHT22;4099;52.684;9.918;2023-04-29T10:58:41;15.80;99.40
8114;DHT22;4099;52.684;9.918;2023-04-29T11:03:49;16.20;98.00
8114;DHT22;4099;52.684;9.918;2023-04-29T11:09:02;15.70;96.80
8114;DHT22;4099;52.684;9.918;2023-04-29T11:14:04;15.10;97.00
8114;DHT22;4099;52.684;9.918;2023-04-29T11:19:08;15.50;98.40
8114;DHT22;4099;52.684;9.918;2023-04-29T11:24:12;16.30;96.60
8114;DHT22;4099;52.684;9.918;2023-04-29T11:29:17;16.00;96.90
8114;DHT22;4099;52.684;9.918;2023-04-29T11:34:24;17.00;97.10
8114;DHT22;4099;52.684;9.918;2023-04-29T11:39:27;17.10;92.60
8114;DHT22;4099;52.684;9.918;2023-04-29T11:44:28;16.90;94.30
8114;DHT22;4099;52.684;9.918;2023-04-29T11:49:32;17.70;93.40
8114;DHT22;4099;52.684;9.918;2023-04-29T11:54:34;17.20;94.10
8114;DHT22;4099;52.684;9.918;2023-04-29T11:59:36;16.60;95.70
8114;DHT22;4099;52.684;9.918;2023-04-29T12:04:45;16.60;95.60
8114;DHT22;4099;52.684;9.918;2023-04-29T12:09:47;16.50;96.10
8114;DHT22;4099;52.684;9.918;2023-04-29T12:14:49;16.50;95.10
8114;DHT22;4099;52.684;9.918;2023-04-29T12:19:52;17.40;94.40
8114;DHT22;4099;52.684;9.918;2023-04-29T12:24:56;16.90;93.50
8114;DHT22;4099;52.684;9.918;2023-04-29T12:29:57;16.40;94.70
8114;DHT22;4099;52.684;9.918;2023-04-29T12:35:01;17.30;94.00
8114;DHT22;4099;52.684;9.918;2023-04-29T12:40:04;19.20;91.70
8114;DHT22;4099;52.684;9.918;2023-04-29T12:45:06;19.90;91.90
8114;DHT22;4099;52.684;9.918;2023-04-29T12:50:10;19.10;91.30
8114;DHT22;4099;52.684;9.918;2023-04-29T12:55:12;18.20;92.60
8114;DHT22;4099;52.684;9.918;2023-04-29T13:00:14;17.30;92.70
8114;DHT22;4099;52.684;9.918;2023-04-29T13:05:17;16.60;93.20
8114;DHT22;4099;52.684;9.918;2023-04-29T13:10:19;16.60;93.10
8114;DHT22;4099;52.684;9.918;2023-04-29T13:15:21;17.60;93.00
8114;DHT22;4099;52.684;9.918;2023-04-29T13:20:25;18.60;91.10
8114;DHT22;4099;52.684;9.918;2023-04-29T13:25:26;17.20;92.40
8114;DHT22;4099;52.684;9.918;2023-04-29T13:30:28;16.70;93.00
8114;DHT22;4099;52.684;9.918;2023-04-29T13:35:31;16.70;91.80
8114;DHT22;4099;52.684;9.918;2023-04-29T13:40:35;15.90;92.90
8114;DHT22;4099;52.684;9.918;2023-04-29T13:45:37;16.00;92.60
8114;DHT22;4099;52.684;9.918;2023-04-29T13:50:40;16.30;93.50
8114;DHT22;4099;52.684;9.918;2023-04-29T13:55:44;16.80;93.50
8114;DHT22;4099;52.684;9.918;2023-04-29T14:00:46;16.90;92.00
8114;DHT22;4099;52.684;9.918;2023-04-29T14:05:49;17.30;91.20
8114;DHT22;4099;52.684;9.918;2023-04-29T14:10:51;17.30;91.90
8114;DHT22;4099;52.684;9.918;2023-04-29T14:15:53;16.80;93.40
8114;DHT22;4099;52.684;9.918;2023-04-29T14:20:57;16.40;93.90
8114;DHT22;4099;52.684;9.918;2023-04-29T14:25:59;16.70;94.00
8114;DHT22;4099;52.684;9.918;2023-04-29T14:31:01;16.70;93.00
8114;DHT22;4099;52.684;9.918;2023-04-29T14:36:05;15.80;93.80
8114;DHT22;4099;52.684;9.918;2023-04-29T14:41:07;15.40;94.80
8114;DHT22;4099;52.684;9.918;2023-04-29T14:46:10;15.60;95.10
8114;DHT22;4099;52.684;9.918;2023-04-29T14:51:13;16.50;94.40
8114;DHT22;4099;52.684;9.918;2023-04-29T14:56:15;17.40;93.30
8114;DHT22;4099;52.684;9.918;2023-04-29T15:01:17;17.30;93.10
8114;DHT22;4099;52.684;9.918;2023-04-29T15:06:20;17.50;91.60
8114;DHT22;4099;52.684;9.918;2023-04-29T15:11:22;17.40;91.70
8114;DHT22;4099;52.684;9.918;2023-04-29T15:16:25;17.10;91.90
8114;DHT22;4099;52.684;9.918;2023-04-29T15:21:29;16.50;92.20
8114;DHT22;4099;52.684;9.918;2023-04-29T15:26:31;16.30;91.70
8114;DHT22;4099;52.684;9.918;2023-04-29T15:31:35;16.10;92.20
8114;DHT22;4099;52.684;9.918;2023-04-29T15:36:39;16.30;93.00
8114;DHT22;4099;52.684;9.918;2023-04-29T15:41:42;17.30;90.60
8114;DHT22;4099;52.684;9.918;2023-04-29T15:46:44;17.10;91.00
8114;DHT22;4099;52.684;9.918;2023-04-29T15:51:47;16.60;92.00
8114;DHT22;4099;52.684;9.918;2023-04-29T15:56:49;16.00;91.90
8114;DHT22;4099;52.684;9.918;2023-04-29T16:01:51;15.90;92.00
8114;DHT22;4099;52.684;9.918;2023-04-29T16:06:54;16.80;90.20
8114;DHT22;4099;52.684;9.918;2023-04-29T16:11:56;18.30;86.30
8114;DHT22;4099;52.684;9.918;2023-04-29T16:16:58;19.50;85.60
8114;DHT22;4099;52.684;9.918;2023-04-29T16:22:02;21.70;79.40
8114;DHT22;4099;52.684;9.918;2023-04-29T16:27:04;22.90;73.90
8114;DHT22;4099;52.684;9.918;2023-04-29T16:32:06;22.60;72.40
8114;DHT22;4099;52.684;9.918;2023-04-29T16:37:09;22.20;73.20
8114;DHT22;4099;52.684;9.918;2023-04-29T16:42:12;21.80;70.30
8114;DHT22;4099;52.684;9.918;2023-04-29T16:47:14;19.20;73.40
8114;DHT22;4099;52.684;9.918;2023-04-29T16:52:17;17.10;78.70
8114;DHT22;4099;52.684;9.918;2023-04-29T16:57:20;16.30;82.50
8114;DHT22;4099;52.684;9.918;2023-04-29T17:02:26;16.30;83.90
8114;DHT22;4099;52.684;9.918;2023-04-29T17:07:30;15.90;84.20
8114;DHT22;4099;52.684;9.918;2023-04-29T17:12:32;15.60;83.80
8114;DHT22;4099;52.684;9.918;2023-04-29T17:17:34;15.30;85.00
8114;DHT22;4099;52.684;9.918;2023-04-29T17:22:38;15.00;86.90
8114;DHT22;4099;52.684;9.918;2023-04-29T17:27:42;15.10;88.90
8114;DHT22;4099;52.684;9.918;2023-04-29T17:32:44;16.10;83.40
8114;DHT22;4099;52.684;9.918;2023-04-29T17:37:50;16.00;85.70
8114;DHT22;4099;52.684;9.918;2023-04-29T17:42:52;15.60;86.80
8114;DHT22;4099;52.684;9.918;2023-04-29T17:47:54;15.60;87.30
8114;DHT22;4099;52.684;9.918;2023-04-29T17:52:57;15.60;88.00
8114;DHT22;4099;52.684;9.918;2023-04-29T17:57:59;14.80;90.20
8114;DHT22;4099;52.684;9.918;2023-04-29T18:03:01;13.80;92.40
8114;DHT22;4099;52.684;9.918;2023-04-29T18:08:04;13.30;94.20
8114;DHT22;4099;52.684;9.918;2023-04-29T18:13:06;13.00;95.40
8114;DHT22;4099;52.684;9.918;2023-04-29T18:18:08;12.60;99.40
8114;DHT22;4099;52.684;9.918;2023-04-29T18:23:11;12.30;99.90
8114;DHT22;4099;52.684;9.918;2023-04-29T18:28:16;12.00;99.90
8114;DHT22;4099;52.684;9.918;2023-04-29T18:33:18;11.70;99.90
8114;DHT22;4099;52.684;9.918;2023-04-29T18:38:21;11.50;99.90
8114;DHT22;4099;52.684;9.918;2023-04-29T18:43:23;11.20;99.90
8114;DHT22;4099;52.684;9.918;2023-04-29T18:48:27;11.10;99.90
8114;DHT22;4099;52.684;9.918;2023-04-29T18:53:32;10.90;99.90
8114;DHT22;4099;52.684;9.918;2023-04-29T18:58:34;10.70;99.90
8114;DHT22;4099;52.684;9.918;2023-04-29T19:03:35;10.40;99.90
8114;DHT22;4099;52.684;9.918;2023-04-29T19:08:39;10.20;99.90
8114;DHT22;4099;52.684;9.918;2023-04-29T19:13:41;10.10;99.90
8114;DHT22;4099;52.684;9.918;2023-04-29T19:18:43;10.00;99.90
8114;DHT22;4099;52.684;9.918;2023-04-29T19:23:47;9.90;99.90
8114;DHT22;4099;52.684;9.918;2023-04-29T19:28:49;9.80;99.90
8114;DHT22;4099;52.684;9.918;2023-04-29T19:33:50;9.60;99.90
8114;DHT22;4099;52.684;9.918;2023-04-29T19:38:54;9.40;99.90
8114;DHT22;4099;52.684;9.918;2023-04-29T19:43:56;9.20;99.90
8114;DHT22;4099;52.684;9.918;2023-04-29T19:48:58;8.90;99.90
8114;DHT22;4099;52.684;9.918;2023-04-29T19:54:01;8.70;99.90
8114;DHT22;4099;52.684;9.918;2023-04-29T19:59:03;8.70;99.90
8114;DHT22;4099;52.684;9.918;2023-04-29T20:04:04;8.50;99.90
8114;DHT22;4099;52.684;9.918;2023-04-29T20:09:08;8.50;99.90
8114;DHT22;4099;52.684;9.918;2023-04-29T20:14:10;8.30;99.90
8114;DHT22;4099;52.684;9.918;2023-04-29T20:19:12;8.10;99.90
8114;DHT22;4099;52.684;9.918;2023-04-29T20:24:15;7.90;99.90
8114;DHT22;4099;52.684;9.918;2023-04-29T20:29:17;7.80;99.90
8114;DHT22;4099;52.684;9.918;2023-04-29T20:34:19;7.90;99.90
8114;DHT22;4099;52.684;9.918;2023-04-29T20:39:23;7.90;99.90
8114;DHT22;4099;52.684;9.918;2023-04-29T20:44:25;7.70;99.90
8114;DHT22;4099;52.684;9.918;2023-04-29T20:49:26;7.60;99.90
8114;DHT22;4099;52.684;9.918;2023-04-29T20:54:30;7.60;99.90
8114;DHT22;4099;52.684;9.918;2023-04-29T20:59:31;7.50;99.90
8114;DHT22;4099;52.684;9.918;2023-04-29T21:04:33;7.40;99.90
8114;DHT22;4099;52.684;9.918;2023-04-29T21:09:37;7.30;99.90
8114;DHT22;4099;52.684;9.918;2023-04-29T21:14:38;7.10;99.90
8114;DHT22;4099;52.684;9.918;2023-04-29T21:19:40;6.90;99.90
8114;DHT22;4099;52.684;9.918;2023-04-29T21:24:43;6.80;99.90
8114;DHT22;4099;52.684;9.918;2023-04-29T21:29:45;6.60;99.90
8114;DHT22;4099;52.684;9.918;2023-04-29T21:34:47;6.50;99.90
8114;DHT22;4099;52.684;9.918;2023-04-29T21:39:50;6.40;99.90
8114;DHT22;4099;52.684;9.918;2023-04-29T21:44:52;6.40;99.90
8114;DHT22;4099;52.684;9.918;2023-04-29T21:49:55;6.40;99.90
8114;DHT22;4099;52.684;9.918;2023-04-29T21:54:58;6.30;99.90
8114;DHT22;4099;52.684;9.918;2023-04-29T22:00:00;6.40;99.90
8114;DHT22;4099;52.684;9.918;2023-04-29T22:05:13;6.50;99.90
8114;DHT22;4099;52.684;9.918;2023-04-29T22:10:16;6.40;99.90
8114;DHT22;4099;52.684;9.918;2023-04-29T22:15:18;6.20;99.90
8114;DHT22;4099;52.684;9.918;2023-04-29T22:20:20;6.10;99.90
8114;DHT22;4099;52.684;9.918;2023-04-29T22:25:23;6.00;99.90
8114;DHT22;4099;52.684;9.918;2023-04-29T22:30:26;5.70;99.90
8114;DHT22;4099;52.684;9.918;2023-04-29T22:35:27;5.60;99.90
8114;DHT22;4099;52.684;9.918;2023-04-29T22:40:31;5.40;99.90
8114;DHT22;4099;52.684;9.918;2023-04-29T22:45:33;5.20;99.90
8114;DHT22;4099;52.684;9.918;2023-04-29T22:50:34;5.00;99.90
8114;DHT22;4099;52.684;9.918;2023-04-29T22:55:37;4.90;99.90
8114;DHT22;4099;52.684;9.918;2023-04-29T23:00:40;4.80;99.90
8114;DHT22;4099;52.684;9.918;2023-04-29T23:05:43;4.70;99.90
8114;DHT22;4099;52.684;9.918;2023-04-29T23:10:47;4.60;99.90
8114;DHT22;4099;52.684;9.918;2023-04-29T23:15:49;4.50;99.90
8114;DHT22;4099;52.684;9.918;2023-04-29T23:20:51;4.50;99.90
8114;DHT22;4099;52.684;9.918;2023-04-29T23:25:54;4.50;99.90
8114;DHT22;4099;52.684;9.918;2023-04-29T23:30:56;4.40;99.90
8114;DHT22;4099;52.684;9.918;2023-04-29T23:35:58;4.40;99.90
8114;DHT22;4099;52.684;9.918;2023-04-29T23:41:01;4.30;99.90
8114;DHT22;4099;52.684;9.918;2023-04-29T23:46:06;4.20;99.90
8114;DHT22;4099;52.684;9.918;2023-04-29T23:51:08;4.10;99.90
8114;DHT22;4099;52.684;9.918;2023-04-29T23:56:11;4.20;99.90
